sensor_id;sensor_type;location;lat;lon;timestamp;temperature;humidity
66057;DHT22;52842;52.666;5.202;2022-09-03T00:02:05;21.80;63.40
66057;DHT22;52842;52.666;5.202;2022-09-03T00:04:36;21.80;63.40
66057;DHT22;52842;52.666;5.202;2022-09-03T00:07:07;21.80;63.30
66057;DHT22;52842;52.666;5.202;2022-09-03T00:09:38;21.80;63.20
66057;DHT22;52842;52.666;5.202;2022-09-03T00:12:07;21.80;63.10
66057;DHT22;52842;52.666;5.202;2022-09-03T00:14:35;21.70;63.00
66057;DHT22;52842;52.666;5.202;2022-09-03T00:17:06;21.70;62.80
66057;DHT22;52842;52.666;5.202;2022-09-03T00:19:35;21.70;62.70
66057;DHT22;52842;52.666;5.202;2022-09-03T00:22:04;21.70;63.30
66057;DHT22;52842;52.666;5.202;2022-09-03T00:24:35;21.80;62.60
66057;DHT22;52842;52.666;5.202;2022-09-03T00:27:05;21.70;62.40
66057;DHT22;52842;52.666;5.202;2022-09-03T00:29:34;21.70;62.30
66057;DHT22;52842;52.666;5.202;2022-09-03T00:32:02;21.70;62.20
66057;DHT22;52842;52.666;5.202;2022-09-03T00:34:33;21.70;62.10
66057;DHT22;52842;52.666;5.202;2022-09-03T00:37:03;21.70;62.10
66057;DHT22;52842;52.666;5.202;2022-09-03T00:39:30;21.70;62.10
66057;DHT22;52842;52.666;5.202;2022-09-03T00:42:00;21.70;62.10
66057;DHT22;52842;52.666;5.202;2022-09-03T00:44:39;21.70;62.20
66057;DHT22;52842;52.666;5.202;2022-09-03T00:47:08;21.70;62.20
66057;DHT22;52842;52.666;5.202;2022-09-03T00:49:41;21.60;62.20
66057;DHT22;52842;52.666;5.202;2022-09-03T00:52:12;21.60;62.20
66057;DHT22;52842;52.666;5.202;2022-09-03T00:54:45;21.60;62.30
66057;DHT22;52842;52.666;5.202;2022-09-03T00:57:18;21.60;62.40
66057;DHT22;52842;52.666;5.202;2022-09-03T00:59:52;21.60;62.50
66057;DHT22;52842;52.666;5.202;2022-09-03T01:02:25;21.60;62.60
66057;DHT22;52842;52.666;5.202;2022-09-03T01:05:05;21.60;62.60
66057;DHT22;52842;52.666;5.202;2022-09-03T01:07:42;21.60;62.60
66057;DHT22;52842;52.666;5.202;2022-09-03T01:10:17;21.60;62.60
66057;DHT22;52842;52.666;5.202;2022-09-03T01:13:00;21.60;62.60
66057;DHT22;52842;52.666;5.202;2022-09-03T01:15:34;21.60;62.60
66057;DHT22;52842;52.666;5.202;2022-09-03T01:18:08;21.60;62.60
66057;DHT22;52842;52.666;5.202;2022-09-03T01:20:48;21.60;62.60
66057;DHT22;52842;52.666;5.202;2022-09-03T01:26:19;21.60;62.60
66057;DHT22;52842;52.666;5.202;2022-09-03T01:28:55;21.50;62.40
66057;DHT22;52842;52.666;5.202;2022-09-03T01:31:27;21.60;62.50
66057;DHT22;52842;52.666;5.202;2022-09-03T01:34:00;21.60;62.40
66057;DHT22;52842;52.666;5.202;2022-09-03T01:36:33;21.50;62.30
66057;DHT22;52842;52.666;5.202;2022-09-03T01:39:06;21.50;62.20
66057;DHT22;52842;52.666;5.202;2022-09-03T01:41:43;21.50;62.10
66057;DHT22;52842;52.666;5.202;2022-09-03T01:44:34;21.50;62.10
66057;DHT22;52842;52.666;5.202;2022-09-03T01:47:14;21.50;62.00
66057;DHT22;52842;52.666;5.202;2022-09-03T01:49:52;21.50;61.90
66057;DHT22;52842;52.666;5.202;2022-09-03T01:52:32;21.50;61.80
66057;DHT22;52842;52.666;5.202;2022-09-03T01:55:09;21.50;61.80
66057;DHT22;52842;52.666;5.202;2022-09-03T01:57:46;21.50;61.70
66057;DHT22;52842;52.666;5.202;2022-09-03T02:00:23;21.50;61.70
66057;DHT22;52842;52.666;5.202;2022-09-03T02:02:51;21.50;61.60
66057;DHT22;52842;52.666;5.202;2022-09-03T02:05:29;21.40;61.50
66057;DHT22;52842;52.666;5.202;2022-09-03T02:07:58;21.50;61.60
66057;DHT22;52842;52.666;5.202;2022-09-03T02:10:27;21.40;61.40
66057;DHT22;52842;52.666;5.202;2022-09-03T02:12:58;21.40;61.50
66057;DHT22;52842;52.666;5.202;2022-09-03T02:15:39;21.40;61.40
66057;DHT22;52842;52.666;5.202;2022-09-03T02:18:12;21.40;61.40
66057;DHT22;52842;52.666;5.202;2022-09-03T02:20:48;21.40;61.40
66057;DHT22;52842;52.666;5.202;2022-09-03T02:23:20;21.40;61.50
66057;DHT22;52842;52.666;5.202;2022-09-03T02:25:54;21.40;61.40
66057;DHT22;52842;52.666;5.202;2022-09-03T02:28:26;21.40;61.40
66057;DHT22;52842;52.666;5.202;2022-09-03T02:30:59;21.40;61.40
66057;DHT22;52842;52.666;5.202;2022-09-03T02:33:31;21.40;61.30
66057;DHT22;52842;52.666;5.202;2022-09-03T02:36:02;21.30;61.30
66057;DHT22;52842;52.666;5.202;2022-09-03T02:38:34;21.30;61.30
66057;DHT22;52842;52.666;5.202;2022-09-03T02:41:04;21.30;61.30
66057;DHT22;52842;52.666;5.202;2022-09-03T02:43:33;21.30;61.30
66057;DHT22;52842;52.666;5.202;2022-09-03T02:46:06;21.30;61.30
66057;DHT22;52842;52.666;5.202;2022-09-03T02:48:35;21.30;61.30
66057;DHT22;52842;52.666;5.202;2022-09-03T02:51:04;21.30;61.30
66057;DHT22;52842;52.666;5.202;2022-09-03T02:53:31;21.30;61.30
66057;DHT22;52842;52.666;5.202;2022-09-03T02:56:01;21.30;61.20
66057;DHT22;52842;52.666;5.202;2022-09-03T02:58:31;21.30;61.20
66057;DHT22;52842;52.666;5.202;2022-09-03T03:01:06;21.20;61.10
66057;DHT22;52842;52.666;5.202;2022-09-03T03:03:36;21.30;61.20
66057;DHT22;52842;52.666;5.202;2022-09-03T03:06:03;21.20;61.20
66057;DHT22;52842;52.666;5.202;2022-09-03T03:08:34;21.20;61.10
66057;DHT22;52842;52.666;5.202;2022-09-03T03:11:01;21.20;61.10
66057;DHT22;52842;52.666;5.202;2022-09-03T03:13:30;21.20;61.10
66057;DHT22;52842;52.666;5.202;2022-09-03T03:15:57;21.20;61.10
66057;DHT22;52842;52.666;5.202;2022-09-03T03:18:29;21.20;61.10
66057;DHT22;52842;52.666;5.202;2022-09-03T03:21:03;21.20;61.10
66057;DHT22;52842;52.666;5.202;2022-09-03T03:23:31;21.20;61.10
66057;DHT22;52842;52.666;5.202;2022-09-03T03:26:01;21.10;61.00
66057;DHT22;52842;52.666;5.202;2022-09-03T03:28:29;21.10;61.00
66057;DHT22;52842;52.666;5.202;2022-09-03T03:31:06;21.20;61.10
66057;DHT22;52842;52.666;5.202;2022-09-03T03:33:36;21.10;61.10
66057;DHT22;52842;52.666;5.202;2022-09-03T03:36:05;21.10;61.00
66057;DHT22;52842;52.666;5.202;2022-09-03T03:38:37;21.10;61.10
66057;DHT22;52842;52.666;5.202;2022-09-03T03:41:07;21.10;61.10
66057;DHT22;52842;52.666;5.202;2022-09-03T03:43:39;21.10;61.10
66057;DHT22;52842;52.666;5.202;2022-09-03T03:46:08;21.10;61.10
66057;DHT22;52842;52.666;5.202;2022-09-03T03:48:37;21.10;61.20
66057;DHT22;52842;52.666;5.202;2022-09-03T03:51:07;21.10;61.20
66057;DHT22;52842;52.666;5.202;2022-09-03T03:53:39;21.10;61.20
66057;DHT22;52842;52.666;5.202;2022-09-03T03:56:11;21.10;61.30
66057;DHT22;52842;52.666;5.202;2022-09-03T03:58:41;21.10;61.30
66057;DHT22;52842;52.666;5.202;2022-09-03T04:01:12;21.10;61.30
66057;DHT22;52842;52.666;5.202;2022-09-03T04:03:41;21.00;61.20
66057;DHT22;52842;52.666;5.202;2022-09-03T04:06:10;21.00;61.30
66057;DHT22;52842;52.666;5.202;2022-09-03T04:08:41;21.00;61.30
66057;DHT22;52842;52.666;5.202;2022-09-03T04:11:13;21.00;61.30
66057;DHT22;52842;52.666;5.202;2022-09-03T04:13:42;21.00;61.40
66057;DHT22;52842;52.666;5.202;2022-09-03T04:16:11;21.00;61.40
66057;DHT22;52842;52.666;5.202;2022-09-03T04:18:47;21.00;61.50
66057;DHT22;52842;52.666;5.202;2022-09-03T04:21:16;21.00;61.50
66057;DHT22;52842;52.666;5.202;2022-09-03T04:23:53;21.00;61.60
66057;DHT22;52842;52.666;5.202;2022-09-03T04:26:22;21.00;61.60
66057;DHT22;52842;52.666;5.202;2022-09-03T04:28:50;21.00;61.60
66057;DHT22;52842;52.666;5.202;2022-09-03T04:31:21;21.00;61.70
66057;DHT22;52842;52.666;5.202;2022-09-03T04:33:54;21.00;61.60
66057;DHT22;52842;52.666;5.202;2022-09-03T04:36:23;21.00;61.70
66057;DHT22;52842;52.666;5.202;2022-09-03T04:38:57;20.90;61.70
66057;DHT22;52842;52.666;5.202;2022-09-03T04:41:29;20.90;61.70
66057;DHT22;52842;52.666;5.202;2022-09-03T04:43:57;20.90;61.70
66057;DHT22;52842;52.666;5.202;2022-09-03T04:46:28;20.90;61.70
66057;DHT22;52842;52.666;5.202;2022-09-03T04:49:01;20.90;61.70
66057;DHT22;52842;52.666;5.202;2022-09-03T04:51:31;20.90;61.70
66057;DHT22;52842;52.666;5.202;2022-09-03T04:54:02;20.90;61.70
66057;DHT22;52842;52.666;5.202;2022-09-03T04:56:34;20.90;61.70
66057;DHT22;52842;52.666;5.202;2022-09-03T04:59:04;20.90;61.80
66057;DHT22;52842;52.666;5.202;2022-09-03T05:01:32;20.90;61.70
66057;DHT22;52842;52.666;5.202;2022-09-03T05:04:05;20.90;61.80
66057;DHT22;52842;52.666;5.202;2022-09-03T05:06:35;20.90;61.80
66057;DHT22;52842;52.666;5.202;2022-09-03T05:09:05;20.80;61.70
66057;DHT22;52842;52.666;5.202;2022-09-03T05:11:37;20.90;61.80
66057;DHT22;52842;52.666;5.202;2022-09-03T05:14:03;20.80;61.70
66057;DHT22;52842;52.666;5.202;2022-09-03T05:16:37;20.80;61.70
66057;DHT22;52842;52.666;5.202;2022-09-03T05:19:07;20.80;61.80
66057;DHT22;52842;52.666;5.202;2022-09-03T05:21:40;20.80;61.80
66057;DHT22;52842;52.666;5.202;2022-09-03T05:24:10;20.80;61.80
66057;DHT22;52842;52.666;5.202;2022-09-03T05:26:40;20.80;61.70
66057;DHT22;52842;52.666;5.202;2022-09-03T05:29:08;20.80;61.70
66057;DHT22;52842;52.666;5.202;2022-09-03T05:31:38;20.80;61.70
66057;DHT22;52842;52.666;5.202;2022-09-03T05:34:10;20.80;61.80
66057;DHT22;52842;52.666;5.202;2022-09-03T05:36:37;20.80;61.70
66057;DHT22;52842;52.666;5.202;2022-09-03T05:39:07;20.80;61.80
66057;DHT22;52842;52.666;5.202;2022-09-03T05:44:20;20.80;61.80
66057;DHT22;52842;52.666;5.202;2022-09-03T05:46:51;20.80;61.80
66057;DHT22;52842;52.666;5.202;2022-09-03T05:49:22;20.70;61.70
66057;DHT22;52842;52.666;5.202;2022-09-03T05:51:55;20.70;61.70
66057;DHT22;52842;52.666;5.202;2022-09-03T05:54:26;20.70;61.70
66057;DHT22;52842;52.666;5.202;2022-09-03T05:56:53;20.70;61.80
66057;DHT22;52842;52.666;5.202;2022-09-03T05:59:26;20.70;61.80
66057;DHT22;52842;52.666;5.202;2022-09-03T06:01:55;20.70;61.90
66057;DHT22;52842;52.666;5.202;2022-09-03T06:04:27;20.70;61.90
66057;DHT22;52842;52.666;5.202;2022-09-03T06:06:57;20.70;62.00
66057;DHT22;52842;52.666;5.202;2022-09-03T06:09:23;20.70;62.00
66057;DHT22;52842;52.666;5.202;2022-09-03T06:11:53;20.70;62.00
66057;DHT22;52842;52.666;5.202;2022-09-03T06:14:19;20.70;62.00
66057;DHT22;52842;52.666;5.202;2022-09-03T06:16:50;20.70;62.00
66057;DHT22;52842;52.666;5.202;2022-09-03T06:19:17;20.70;62.10
66057;DHT22;52842;52.666;5.202;2022-09-03T06:21:48;20.70;62.20
66057;DHT22;52842;52.666;5.202;2022-09-03T06:24:20;20.70;62.20
66057;DHT22;52842;52.666;5.202;2022-09-03T06:26:51;20.70;62.20
66057;DHT22;52842;52.666;5.202;2022-09-03T06:29:21;20.70;62.20
66057;DHT22;52842;52.666;5.202;2022-09-03T06:31:47;20.70;62.20
66057;DHT22;52842;52.666;5.202;2022-09-03T06:34:18;20.70;62.30
66057;DHT22;52842;52.666;5.202;2022-09-03T06:36:50;20.70;62.30
66057;DHT22;52842;52.666;5.202;2022-09-03T06:39:23;20.70;62.30
66057;DHT22;52842;52.666;5.202;2022-09-03T06:41:53;20.70;62.40
66057;DHT22;52842;52.666;5.202;2022-09-03T06:44:20;20.70;62.40
66057;DHT22;52842;52.666;5.202;2022-09-03T06:46:51;20.70;62.50
66057;DHT22;52842;52.666;5.202;2022-09-03T06:49:29;20.70;62.50
66057;DHT22;52842;52.666;5.202;2022-09-03T06:51:57;20.70;62.60
66057;DHT22;52842;52.666;5.202;2022-09-03T06:54:25;20.70;62.60
66057;DHT22;52842;52.666;5.202;2022-09-03T06:56:55;20.70;62.70
66057;DHT22;52842;52.666;5.202;2022-09-03T06:59:23;20.60;62.70
66057;DHT22;52842;52.666;5.202;2022-09-03T07:01:53;20.70;62.80
66057;DHT22;52842;52.666;5.202;2022-09-03T07:04:19;20.60;62.80
66057;DHT22;52842;52.666;5.202;2022-09-03T07:06:50;20.60;62.90
66057;DHT22;52842;52.666;5.202;2022-09-03T07:09:19;20.60;62.90
66057;DHT22;52842;52.666;5.202;2022-09-03T07:11:47;20.60;63.00
66057;DHT22;52842;52.666;5.202;2022-09-03T07:14:19;20.60;63.10
66057;DHT22;52842;52.666;5.202;2022-09-03T07:16:49;20.60;63.20
66057;DHT22;52842;52.666;5.202;2022-09-03T07:19:16;20.60;63.30
66057;DHT22;52842;52.666;5.202;2022-09-03T07:21:46;20.60;63.40
66057;DHT22;52842;52.666;5.202;2022-09-03T07:24:15;20.60;63.40
66057;DHT22;52842;52.666;5.202;2022-09-03T07:26:49;20.60;63.50
66057;DHT22;52842;52.666;5.202;2022-09-03T07:29:19;20.60;63.60
66057;DHT22;52842;52.666;5.202;2022-09-03T07:31:48;20.60;63.60
66057;DHT22;52842;52.666;5.202;2022-09-03T07:34:19;20.60;63.70
66057;DHT22;52842;52.666;5.202;2022-09-03T07:36:49;20.60;63.70
66057;DHT22;52842;52.666;5.202;2022-09-03T07:39:18;20.60;63.70
66057;DHT22;52842;52.666;5.202;2022-09-03T07:41:50;20.60;63.70
66057;DHT22;52842;52.666;5.202;2022-09-03T07:44:19;20.60;63.70
66057;DHT22;52842;52.666;5.202;2022-09-03T07:46:50;20.60;63.70
66057;DHT22;52842;52.666;5.202;2022-09-03T07:49:19;20.60;63.80
66057;DHT22;52842;52.666;5.202;2022-09-03T07:51:47;20.60;63.70
66057;DHT22;52842;52.666;5.202;2022-09-03T07:54:27;20.60;63.80
66057;DHT22;52842;52.666;5.202;2022-09-03T07:57:05;20.70;63.90
66057;DHT22;52842;52.666;5.202;2022-09-03T07:59:32;20.70;63.90
66057;DHT22;52842;52.666;5.202;2022-09-03T08:02:00;20.60;63.90
66057;DHT22;52842;52.666;5.202;2022-09-03T08:04:33;20.60;63.80
66057;DHT22;52842;52.666;5.202;2022-09-03T08:07:02;20.70;63.90
66057;DHT22;52842;52.666;5.202;2022-09-03T08:09:31;20.70;63.90
66057;DHT22;52842;52.666;5.202;2022-09-03T08:12:01;20.70;63.90
66057;DHT22;52842;52.666;5.202;2022-09-03T08:14:27;20.60;64.60
66057;DHT22;52842;52.666;5.202;2022-09-03T08:16:58;20.70;63.90
66057;DHT22;52842;52.666;5.202;2022-09-03T08:19:26;20.70;63.90
66057;DHT22;52842;52.666;5.202;2022-09-03T08:21:55;20.70;63.90
66057;DHT22;52842;52.666;5.202;2022-09-03T08:24:25;20.70;63.90
66057;DHT22;52842;52.666;5.202;2022-09-03T08:26:52;20.70;63.90
66057;DHT22;52842;52.666;5.202;2022-09-03T08:29:26;20.70;63.90
66057;DHT22;52842;52.666;5.202;2022-09-03T08:31:56;20.70;63.90
66057;DHT22;52842;52.666;5.202;2022-09-03T08:34:25;20.70;63.90
66057;DHT22;52842;52.666;5.202;2022-09-03T08:36:54;20.70;63.90
66057;DHT22;52842;52.666;5.202;2022-09-03T08:39:29;20.70;64.00
66057;DHT22;52842;52.666;5.202;2022-09-03T08:42:02;20.70;64.00
66057;DHT22;52842;52.666;5.202;2022-09-03T08:44:43;20.70;64.00
66057;DHT22;52842;52.666;5.202;2022-09-03T08:47:19;20.70;64.00
66057;DHT22;52842;52.666;5.202;2022-09-03T08:49:50;20.70;64.00
66057;DHT22;52842;52.666;5.202;2022-09-03T08:52:26;20.70;64.00
66057;DHT22;52842;52.666;5.202;2022-09-03T08:54:58;20.70;64.00
66057;DHT22;52842;52.666;5.202;2022-09-03T08:57:30;20.70;64.10
66057;DHT22;52842;52.666;5.202;2022-09-03T09:00:03;20.70;64.10
66057;DHT22;52842;52.666;5.202;2022-09-03T09:02:34;20.70;64.10
66057;DHT22;52842;52.666;5.202;2022-09-03T09:05:15;20.70;64.10
66057;DHT22;52842;52.666;5.202;2022-09-03T09:07:46;20.70;64.10
66057;DHT22;52842;52.666;5.202;2022-09-03T09:10:19;20.70;64.20
66057;DHT22;52842;52.666;5.202;2022-09-03T09:12:55;20.80;64.30
66057;DHT22;52842;52.666;5.202;2022-09-03T09:15:31;20.80;64.40
66057;DHT22;52842;52.666;5.202;2022-09-03T09:18:09;20.80;64.40
66057;DHT22;52842;52.666;5.202;2022-09-03T09:20:41;20.80;64.50
66057;DHT22;52842;52.666;5.202;2022-09-03T09:23:10;20.80;64.50
66057;DHT22;52842;52.666;5.202;2022-09-03T09:25:39;20.80;64.50
66057;DHT22;52842;52.666;5.202;2022-09-03T09:28:12;20.80;64.60
66057;DHT22;52842;52.666;5.202;2022-09-03T09:30:46;20.80;64.60
66057;DHT22;52842;52.666;5.202;2022-09-03T09:33:16;20.80;64.60
66057;DHT22;52842;52.666;5.202;2022-09-03T09:35:43;20.80;64.70
66057;DHT22;52842;52.666;5.202;2022-09-03T09:38:11;20.80;64.60
66057;DHT22;52842;52.666;5.202;2022-09-03T09:40:42;20.90;64.70
66057;DHT22;52842;52.666;5.202;2022-09-03T09:43:19;20.90;64.70
66057;DHT22;52842;52.666;5.202;2022-09-03T09:45:49;20.90;64.70
66057;DHT22;52842;52.666;5.202;2022-09-03T09:48:21;20.90;64.80
66057;DHT22;52842;52.666;5.202;2022-09-03T09:51:08;20.90;64.80
66057;DHT22;52842;52.666;5.202;2022-09-03T09:53:39;20.90;64.80
66057;DHT22;52842;52.666;5.202;2022-09-03T09:56:19;20.90;64.80
66057;DHT22;52842;52.666;5.202;2022-09-03T09:58:49;20.90;64.90
66057;DHT22;52842;52.666;5.202;2022-09-03T10:01:33;20.90;64.90
66057;DHT22;52842;52.666;5.202;2022-09-03T10:04:08;21.00;65.00
66057;DHT22;52842;52.666;5.202;2022-09-03T10:06:35;21.00;65.00
66057;DHT22;52842;52.666;5.202;2022-09-03T10:09:22;21.00;65.10
66057;DHT22;52842;52.666;5.202;2022-09-03T10:11:56;21.00;65.00
66057;DHT22;52842;52.666;5.202;2022-09-03T10:14:35;21.00;65.10
66057;DHT22;52842;52.666;5.202;2022-09-03T10:17:08;21.00;65.10
66057;DHT22;52842;52.666;5.202;2022-09-03T10:19:39;21.00;65.10
66057;DHT22;52842;52.666;5.202;2022-09-03T10:22:33;21.10;65.20
66057;DHT22;52842;52.666;5.202;2022-09-03T10:25:07;21.10;65.20
66057;DHT22;52842;52.666;5.202;2022-09-03T10:27:40;21.10;65.30
66057;DHT22;52842;52.666;5.202;2022-09-03T10:30:11;21.10;65.30
66057;DHT22;52842;52.666;5.202;2022-09-03T10:32:47;21.10;65.30
66057;DHT22;52842;52.666;5.202;2022-09-03T10:35:20;21.10;65.30
66057;DHT22;52842;52.666;5.202;2022-09-03T10:37:54;21.10;65.30
66057;DHT22;52842;52.666;5.202;2022-09-03T10:40:28;21.10;65.30
66057;DHT22;52842;52.666;5.202;2022-09-03T10:43:06;21.10;65.30
66057;DHT22;52842;52.666;5.202;2022-09-03T10:45:39;21.10;65.40
66057;DHT22;52842;52.666;5.202;2022-09-03T10:50:58;21.10;65.40
66057;DHT22;52842;52.666;5.202;2022-09-03T10:53:37;21.20;65.50
66057;DHT22;52842;52.666;5.202;2022-09-03T10:56:09;21.20;65.50
66057;DHT22;52842;52.666;5.202;2022-09-03T10:58:42;21.20;65.50
66057;DHT22;52842;52.666;5.202;2022-09-03T11:01:17;21.20;65.50
66057;DHT22;52842;52.666;5.202;2022-09-03T11:03:48;21.20;65.50
66057;DHT22;52842;52.666;5.202;2022-09-03T11:06:24;21.20;65.50
66057;DHT22;52842;52.666;5.202;2022-09-03T11:08:57;21.30;65.50
66057;DHT22;52842;52.666;5.202;2022-09-03T11:11:30;21.30;65.60
66057;DHT22;52842;52.666;5.202;2022-09-03T11:14:02;21.20;65.50
66057;DHT22;52842;52.666;5.202;2022-09-03T11:16:34;21.30;65.60
66057;DHT22;52842;52.666;5.202;2022-09-03T11:19:08;21.30;65.60
66057;DHT22;52842;52.666;5.202;2022-09-03T11:21:42;21.30;65.60
66057;DHT22;52842;52.666;5.202;2022-09-03T11:24:12;21.30;65.60
66057;DHT22;52842;52.666;5.202;2022-09-03T11:26:43;21.30;65.60
66057;DHT22;52842;52.666;5.202;2022-09-03T11:29:15;21.40;65.60
66057;DHT22;52842;52.666;5.202;2022-09-03T11:31:52;21.30;65.60
66057;DHT22;52842;52.666;5.202;2022-09-03T11:34:27;21.40;65.60
66057;DHT22;52842;52.666;5.202;2022-09-03T11:37:14;21.40;65.70
66057;DHT22;52842;52.666;5.202;2022-09-03T11:39:42;21.40;65.70
66057;DHT22;52842;52.666;5.202;2022-09-03T11:42:20;21.40;65.70
66057;DHT22;52842;52.666;5.202;2022-09-03T11:44:52;21.40;65.70
66057;DHT22;52842;52.666;5.202;2022-09-03T11:47:38;21.40;65.70
66057;DHT22;52842;52.666;5.202;2022-09-03T11:50:14;21.40;65.70
66057;DHT22;52842;52.666;5.202;2022-09-03T11:52:51;21.40;65.70
66057;DHT22;52842;52.666;5.202;2022-09-03T11:55:30;21.40;65.70
66057;DHT22;52842;52.666;5.202;2022-09-03T11:58:08;21.40;65.70
66057;DHT22;52842;52.666;5.202;2022-09-03T12:00:36;21.50;65.70
66057;DHT22;52842;52.666;5.202;2022-09-03T12:03:14;21.50;65.70
66057;DHT22;52842;52.666;5.202;2022-09-03T12:05:47;21.50;65.70
66057;DHT22;52842;52.666;5.202;2022-09-03T12:08:36;21.50;65.70
66057;DHT22;52842;52.666;5.202;2022-09-03T12:11:18;21.50;65.70
66057;DHT22;52842;52.666;5.202;2022-09-03T12:13:50;21.50;65.70
66057;DHT22;52842;52.666;5.202;2022-09-03T12:19:09;21.60;65.80
66057;DHT22;52842;52.666;5.202;2022-09-03T12:21:40;21.50;65.70
66057;DHT22;52842;52.666;5.202;2022-09-03T12:24:11;21.60;65.70
66057;DHT22;52842;52.666;5.202;2022-09-03T12:26:43;21.50;65.70
66057;DHT22;52842;52.666;5.202;2022-09-03T12:29:21;21.60;65.80
66057;DHT22;52842;52.666;5.202;2022-09-03T12:31:48;21.60;65.70
66057;DHT22;52842;52.666;5.202;2022-09-03T12:34:19;21.60;65.70
66057;DHT22;52842;52.666;5.202;2022-09-03T12:36:50;21.60;65.60
66057;DHT22;52842;52.666;5.202;2022-09-03T12:39:20;21.60;65.60
66057;DHT22;52842;52.666;5.202;2022-09-03T12:41:54;21.60;65.60
66057;DHT22;52842;52.666;5.202;2022-09-03T12:44:26;21.60;65.60
66057;DHT22;52842;52.666;5.202;2022-09-03T12:47:00;21.60;65.60
66057;DHT22;52842;52.666;5.202;2022-09-03T12:49:41;21.60;65.50
66057;DHT22;52842;52.666;5.202;2022-09-03T12:52:14;21.60;65.50
66057;DHT22;52842;52.666;5.202;2022-09-03T12:54:50;21.70;65.60
66057;DHT22;52842;52.666;5.202;2022-09-03T12:57:22;21.70;65.70
66057;DHT22;52842;52.666;5.202;2022-09-03T12:59:54;21.70;65.60
66057;DHT22;52842;52.666;5.202;2022-09-03T13:02:27;21.70;65.60
66057;DHT22;52842;52.666;5.202;2022-09-03T13:05:00;21.70;65.60
66057;DHT22;52842;52.666;5.202;2022-09-03T13:07:33;21.70;65.60
66057;DHT22;52842;52.666;5.202;2022-09-03T13:10:14;21.70;66.30
66057;DHT22;52842;52.666;5.202;2022-09-03T13:12:45;21.70;65.60
66057;DHT22;52842;52.666;5.202;2022-09-03T13:15:17;21.70;65.60
66057;DHT22;52842;52.666;5.202;2022-09-03T13:18:08;21.80;65.70
66057;DHT22;52842;52.666;5.202;2022-09-03T13:20:39;21.80;65.70
66057;DHT22;52842;52.666;5.202;2022-09-03T13:23:21;21.80;65.80
66057;DHT22;52842;52.666;5.202;2022-09-03T13:25:56;21.80;65.80
66057;DHT22;52842;52.666;5.202;2022-09-03T13:28:33;21.80;65.80
66057;DHT22;52842;52.666;5.202;2022-09-03T13:31:07;21.80;65.70
66057;DHT22;52842;52.666;5.202;2022-09-03T13:33:39;21.80;65.70
66057;DHT22;52842;52.666;5.202;2022-09-03T13:36:16;21.90;65.80
66057;DHT22;52842;52.666;5.202;2022-09-03T13:38:50;21.90;65.70
66057;DHT22;52842;52.666;5.202;2022-09-03T13:41:25;21.90;65.70
66057;DHT22;52842;52.666;5.202;2022-09-03T13:44:02;21.90;65.80
66057;DHT22;52842;52.666;5.202;2022-09-03T13:46:40;21.90;65.70
66057;DHT22;52842;52.666;5.202;2022-09-03T13:49:12;21.90;65.70
66057;DHT22;52842;52.666;5.202;2022-09-03T13:52:02;21.90;65.70
66057;DHT22;52842;52.666;5.202;2022-09-03T13:54:34;21.90;65.70
66057;DHT22;52842;52.666;5.202;2022-09-03T13:57:19;21.90;65.70
66057;DHT22;52842;52.666;5.202;2022-09-03T13:59:49;21.90;65.70
66057;DHT22;52842;52.666;5.202;2022-09-03T14:02:21;21.90;65.70
66057;DHT22;52842;52.666;5.202;2022-09-03T14:05:00;22.00;65.80
66057;DHT22;52842;52.666;5.202;2022-09-03T14:07:40;22.00;65.80
66057;DHT22;52842;52.666;5.202;2022-09-03T14:10:18;22.00;65.80
66057;DHT22;52842;52.666;5.202;2022-09-03T14:12:52;22.00;65.80
66057;DHT22;52842;52.666;5.202;2022-09-03T14:15:27;22.00;65.70
66057;DHT22;52842;52.666;5.202;2022-09-03T14:18:00;22.00;65.70
66057;DHT22;52842;52.666;5.202;2022-09-03T14:20:29;22.00;65.70
66057;DHT22;52842;52.666;5.202;2022-09-03T14:23:03;22.10;65.80
66057;DHT22;52842;52.666;5.202;2022-09-03T14:25:32;22.00;65.70
66057;DHT22;52842;52.666;5.202;2022-09-03T14:28:18;22.10;65.80
66057;DHT22;52842;52.666;5.202;2022-09-03T14:30:57;22.10;65.80
66057;DHT22;52842;52.666;5.202;2022-09-03T14:33:32;22.10;65.80
66057;DHT22;52842;52.666;5.202;2022-09-03T14:36:09;22.10;65.80
66057;DHT22;52842;52.666;5.202;2022-09-03T14:44:26;22.10;65.80
66057;DHT22;52842;52.666;5.202;2022-09-03T14:47:01;22.10;65.80
66057;DHT22;52842;52.666;5.202;2022-09-03T14:52:25;22.10;65.80
66057;DHT22;52842;52.666;5.202;2022-09-03T14:55:07;22.10;65.80
66057;DHT22;52842;52.666;5.202;2022-09-03T15:00:35;22.20;65.80
66057;DHT22;52842;52.666;5.202;2022-09-03T15:03:17;22.20;65.80
66057;DHT22;52842;52.666;5.202;2022-09-03T15:05:53;22.20;65.80
66057;DHT22;52842;52.666;5.202;2022-09-03T15:08:34;22.20;65.90
66057;DHT22;52842;52.666;5.202;2022-09-03T15:11:13;22.20;65.80
66057;DHT22;52842;52.666;5.202;2022-09-03T15:13:44;22.20;65.90
66057;DHT22;52842;52.666;5.202;2022-09-03T15:16:19;22.20;65.90
66057;DHT22;52842;52.666;5.202;2022-09-03T15:18:57;22.20;65.90
66057;DHT22;52842;52.666;5.202;2022-09-03T15:21:31;22.20;65.90
66057;DHT22;52842;52.666;5.202;2022-09-03T15:24:05;22.20;65.90
66057;DHT22;52842;52.666;5.202;2022-09-03T15:26:55;22.20;65.90
66057;DHT22;52842;52.666;5.202;2022-09-03T15:29:28;22.20;65.90
66057;DHT22;52842;52.666;5.202;2022-09-03T15:32:04;22.20;66.00
66057;DHT22;52842;52.666;5.202;2022-09-03T15:34:43;22.20;65.90
66057;DHT22;52842;52.666;5.202;2022-09-03T15:37:16;22.20;66.00
66057;DHT22;52842;52.666;5.202;2022-09-03T15:39:56;22.30;66.00
66057;DHT22;52842;52.666;5.202;2022-09-03T15:42:42;22.30;66.00
66057;DHT22;52842;52.666;5.202;2022-09-03T15:45:15;22.30;66.00
66057;DHT22;52842;52.666;5.202;2022-09-03T15:47:51;22.30;66.00
66057;DHT22;52842;52.666;5.202;2022-09-03T15:50:28;22.30;66.00
66057;DHT22;52842;52.666;5.202;2022-09-03T15:53:03;22.30;66.00
66057;DHT22;52842;52.666;5.202;2022-09-03T15:55:40;22.30;66.00
66057;DHT22;52842;52.666;5.202;2022-09-03T15:58:30;22.30;66.00
66057;DHT22;52842;52.666;5.202;2022-09-03T16:01:05;22.30;66.00
66057;DHT22;52842;52.666;5.202;2022-09-03T16:03:40;22.30;65.90
66057;DHT22;52842;52.666;5.202;2022-09-03T16:06:23;22.40;66.00
66057;DHT22;52842;52.666;5.202;2022-09-03T16:08:52;22.30;65.90
66057;DHT22;52842;52.666;5.202;2022-09-03T16:11:28;22.30;65.90
66057;DHT22;52842;52.666;5.202;2022-09-03T16:16:44;22.40;66.00
66057;DHT22;52842;52.666;5.202;2022-09-03T16:19:22;22.40;66.00
66057;DHT22;52842;52.666;5.202;2022-09-03T16:21:56;22.40;66.00
66057;DHT22;52842;52.666;5.202;2022-09-03T16:24:29;22.40;66.00
66057;DHT22;52842;52.666;5.202;2022-09-03T16:27:01;22.40;66.00
66057;DHT22;52842;52.666;5.202;2022-09-03T16:29:32;22.40;66.00
66057;DHT22;52842;52.666;5.202;2022-09-03T16:32:09;22.40;66.00